Time;durP1;ratioP1;P1;durP2;ratioP2;P2;SDS_P1;SDS_P2;PMS_P1;PMS_P2;Temp;Humidity;BMP_temperature;BMP_pressure;BME280_temperature;BME280_humidity;BME280_pressure;Samples;Min_cycle;Max_cycle;Signal;HPM_P1;HPM_P2
2022/02/16 00:01:08;;;;;;;;;;;2.20;99.90;;;;;;5071441;28;19987;-73
2022/02/16 00:03:34;;;;;;;;;;;2.20;99.90;;;;;;5069842;28;19961;-73
2022/02/16 00:05:59;;;;;;;;;;;2.30;99.90;;;;;;5070009;28;19959;-73
2022/02/16 00:08:25;;;;;;;;;;;2.30;99.90;;;;;;5071261;28;19938;-72
2022/02/16 00:10:50;;;;;;;;;;;2.30;99.90;;;;;;5070064;28;19909;-73
2022/02/16 00:13:16;;;;;;;;;;;2.40;99.90;;;;;;5070949;28;19908;-73
2022/02/16 00:15:41;;;;;;;;;;;2.50;99.90;;;;;;5070186;28;19916;-73
2022/02/16 00:18:07;;;;;;;;;;;2.50;99.90;;;;;;5075310;28;20383;-73
2022/02/16 00:20:33;;;;;;;;;;;2.60;99.90;;;;;;5070855;28;19908;-73
2022/02/16 00:22:58;;;;;;;;;;;2.40;99.90;;;;;;5069797;28;19908;-73
2022/02/16 00:25:23;;;;;;;;;;;2.30;99.90;;;;;;5070677;28;19913;-73
2022/02/16 00:27:49;;;;;;;;;;;2.40;99.90;;;;;;5071091;28;19913;-72
2022/02/16 00:30:14;;;;;;;;;;;2.40;99.90;;;;;;5071158;28;19986;-73
2022/02/16 00:32:40;;;;;;;;;;;2.30;99.90;;;;;;5071238;28;19915;-73
2022/02/16 00:35:06;;;;;;;;;;;2.50;99.90;;;;;;5069512;28;19908;-73
2022/02/16 00:37:32;;;;;;;;;;;2.50;99.90;;;;;;5069625;28;20357;-72
2022/02/16 00:39:57;;;;;;;;;;;2.40;99.90;;;;;;5071058;28;19970;-72
2022/02/16 00:42:23;;;;;;;;;;;2.40;99.90;;;;;;5070900;28;19912;-73
2022/02/16 00:44:48;;;;;;;;;;;2.30;99.90;;;;;;5070795;28;19915;-73
2022/02/16 00:47:14;;;;;;;;;;;2.30;99.90;;;;;;5077102;28;20015;-72
2022/02/16 00:49:39;;;;;;;;;;;2.40;99.90;;;;;;5070891;28;19908;-73
2022/02/16 00:52:05;;;;;;;;;;;2.40;99.90;;;;;;5070690;28;20393;-73
2022/02/16 00:54:31;;;;;;;;;;;2.60;99.90;;;;;;5070576;28;20380;-73
2022/02/16 00:57:01;;;;;;;;;;;2.50;99.90;;;;;;5072440;28;20351;-73
2022/02/16 00:59:27;;;;;;;;;;;2.50;99.90;;;;;;5074821;28;19909;-73
2022/02/16 01:01:52;;;;;;;;;;;2.60;99.90;;;;;;5074978;28;20364;-73
2022/02/16 01:04:18;;;;;;;;;;;2.50;99.90;;;;;;5074181;28;19909;-73
2022/02/16 01:06:43;;;;;;;;;;;2.50;99.90;;;;;;5074479;28;19948;-73
2022/02/16 01:09:09;;;;;;;;;;;2.50;99.90;;;;;;5074402;28;19970;-73
2022/02/16 01:11:34;;;;;;;;;;;2.50;99.90;;;;;;5074391;28;20007;-73
2022/02/16 01:14:00;;;;;;;;;;;2.50;99.90;;;;;;5073030;28;19916;-74
2022/02/16 01:16:25;;;;;;;;;;;2.50;99.90;;;;;;5073917;28;19927;-73
2022/02/16 01:18:51;;;;;;;;;;;2.40;99.90;;;;;;5074233;28;20358;-73
2022/02/16 01:21:16;;;;;;;;;;;2.50;99.90;;;;;;5074227;28;19913;-72
2022/02/16 01:23:42;;;;;;;;;;;2.50;99.90;;;;;;5072668;28;20396;-74
2022/02/16 01:26:09;;;;;;;;;;;2.50;99.90;;;;;;5074258;28;19908;-73
2022/02/16 01:28:34;;;;;;;;;;;2.60;99.90;;;;;;5074053;28;19912;-74
2022/02/16 01:31:00;;;;;;;;;;;2.50;99.90;;;;;;5073971;28;19916;-73
2022/02/16 01:33:25;;;;;;;;;;;2.50;99.90;;;;;;5073703;28;19913;-73
2022/02/16 01:35:51;;;;;;;;;;;2.60;99.90;;;;;;5072748;28;19944;-73
2022/02/16 01:38:16;;;;;;;;;;;2.70;99.90;;;;;;5072622;28;19919;-73
2022/02/16 01:40:42;;;;;;;;;;;2.70;99.90;;;;;;5074197;28;19908;-73
2022/02/16 01:43:07;;;;;;;;;;;2.70;99.90;;;;;;5073612;28;19908;-73
2022/02/16 01:45:35;;;;;;;;;;;2.80;99.90;;;;;;5072556;28;19908;-72
2022/02/16 01:48:01;;;;;;;;;;;2.80;99.90;;;;;;5073412;28;19913;-73
2022/02/16 01:50:27;;;;;;;;;;;2.80;99.90;;;;;;5072429;28;20062;-73
2022/02/16 01:52:52;;;;;;;;;;;2.80;99.90;;;;;;5073608;28;20250;-73
2022/02/16 01:55:18;;;;;;;;;;;2.90;99.90;;;;;;5072288;28;19912;-73
2022/02/16 01:57:44;;;;;;;;;;;2.80;99.90;;;;;;5073671;28;19908;-73
2022/02/16 02:00:10;;;;;;;;;;;2.80;99.90;;;;;;5073680;28;19908;-73
2022/02/16 02:02:35;;;;;;;;;;;2.80;99.90;;;;;;5073495;28;20289;-74
2022/02/16 02:05:01;;;;;;;;;;;2.80;99.90;;;;;;5073489;28;20632;-73
2022/02/16 02:07:26;;;;;;;;;;;2.90;99.90;;;;;;5073181;28;20126;-73
2022/02/16 02:09:52;;;;;;;;;;;2.90;99.90;;;;;;5073066;28;19916;-73
2022/02/16 02:12:18;;;;;;;;;;;3.00;99.90;;;;;;5071979;28;19912;-73
2022/02/16 02:14:49;;;;;;;;;;;3.10;99.90;;;;;;5072031;28;19912;-72
2022/02/16 02:17:14;;;;;;;;;;;3.10;99.90;;;;;;5073114;28;20301;-73
2022/02/16 02:19:40;;;;;;;;;;;3.10;99.90;;;;;;5073879;28;19915;-73
2022/02/16 02:22:05;;;;;;;;;;;3.10;99.90;;;;;;5075035;28;19924;-73
2022/02/16 02:24:31;;;;;;;;;;;3.10;99.90;;;;;;5076573;28;19951;-73
2022/02/16 02:26:57;;;;;;;;;;;3.10;99.90;;;;;;5073113;28;19916;-73
2022/02/16 02:29:22;;;;;;;;;;;3.00;99.90;;;;;;5072944;28;20396;-72
2022/02/16 02:31:48;;;;;;;;;;;3.20;99.90;;;;;;5063055;28;19958;-73
2022/02/16 02:34:13;;;;;;;;;;;3.20;99.90;;;;;;5072512;28;19920;-73
2022/02/16 02:36:39;;;;;;;;;;;3.10;99.90;;;;;;5072837;28;19908;-73
2022/02/16 02:39:04;;;;;;;;;;;3.20;99.90;;;;;;5072836;28;19912;-73
2022/02/16 02:41:30;;;;;;;;;;;3.20;99.90;;;;;;5072756;28;20369;-74
2022/02/16 02:43:56;;;;;;;;;;;3.20;99.90;;;;;;5071423;28;19913;-73
2022/02/16 02:46:21;;;;;;;;;;;3.30;99.90;;;;;;5073021;28;19908;-73
2022/02/16 02:48:47;;;;;;;;;;;3.30;99.90;;;;;;5072585;28;19917;-72
2022/02/16 02:51:13;;;;;;;;;;;3.30;99.90;;;;;;5072646;28;19912;-73
2022/02/16 02:53:38;;;;;;;;;;;3.30;99.90;;;;;;5072470;28;20293;-73
2022/02/16 02:56:04;;;;;;;;;;;3.30;99.90;;;;;;5072667;28;19911;-73
2022/02/16 02:58:29;;;;;;;;;;;3.30;99.90;;;;;;5072455;28;19915;-73
2022/02/16 03:00:55;;;;;;;;;;;3.30;99.90;;;;;;5071207;28;19912;-73
2022/02/16 03:03:21;;;;;;;;;;;3.30;99.90;;;;;;5069933;28;19917;-72
2022/02/16 03:05:46;;;;;;;;;;;3.30;99.90;;;;;;5073055;28;19966;-73
2022/02/16 03:08:12;;;;;;;;;;;3.40;99.90;;;;;;5072137;28;19913;-73
2022/02/16 03:10:37;;;;;;;;;;;3.50;99.90;;;;;;5071048;28;19983;-73
2022/02/16 03:13:03;;;;;;;;;;;3.40;99.90;;;;;;5071748;28;20365;-73
2022/02/16 03:15:28;;;;;;;;;;;3.30;99.90;;;;;;5070378;28;20361;-73
2022/02/16 03:17:54;;;;;;;;;;;3.30;99.90;;;;;;5068971;28;19913;-73
2022/02/16 03:20:19;;;;;;;;;;;3.40;99.90;;;;;;5070969;28;19915;-72
2022/02/16 03:22:45;;;;;;;;;;;3.50;99.90;;;;;;5070521;28;19924;-73
2022/02/16 03:25:11;;;;;;;;;;;3.60;99.90;;;;;;5071756;28;19908;-73
2022/02/16 03:27:37;;;;;;;;;;;3.50;99.90;;;;;;5071747;28;19912;-73
2022/02/16 03:30:04;;;;;;;;;;;3.60;99.90;;;;;;5070661;28;20254;-73
2022/02/16 03:32:29;;;;;;;;;;;3.60;99.90;;;;;;5071647;28;19930;-73
2022/02/16 03:34:55;;;;;;;;;;;3.70;99.90;;;;;;5071524;28;20003;-73
2022/02/16 03:37:20;;;;;;;;;;;3.60;99.90;;;;;;5070308;28;20388;-73
2022/02/16 03:39:45;;;;;;;;;;;3.70;99.90;;;;;;5071758;28;19919;-73
2022/02/16 03:42:14;;;;;;;;;;;3.90;99.90;;;;;;5071573;28;19948;-73
2022/02/16 03:44:40;;;;;;;;;;;3.80;99.90;;;;;;5071714;28;20007;-73
2022/02/16 03:47:05;;;;;;;;;;;3.80;99.90;;;;;;5066976;28;20288;-73
2022/02/16 03:49:31;;;;;;;;;;;3.90;99.90;;;;;;5071469;28;20003;-73
2022/02/16 03:51:56;;;;;;;;;;;4.00;99.90;;;;;;5071381;28;20336;-73
2022/02/16 03:54:22;;;;;;;;;;;4.00;99.90;;;;;;5071335;28;19948;-73
2022/02/16 03:56:47;;;;;;;;;;;4.00;99.90;;;;;;5071547;28;19919;-73
2022/02/16 03:59:13;;;;;;;;;;;3.90;99.90;;;;;;5071329;28;19943;-73
2022/02/16 04:01:38;;;;;;;;;;;4.10;99.90;;;;;;5071114;28;19920;-73
2022/02/16 04:04:04;;;;;;;;;;;4.00;99.90;;;;;;5071063;28;19951;-73
2022/02/16 04:06:29;;;;;;;;;;;3.90;99.90;;;;;;5071345;28;19909;-73
2022/02/16 04:08:55;;;;;;;;;;;3.90;99.90;;;;;;5071237;28;20411;-73
2022/02/16 04:11:26;;;;;;;;;;;4.00;99.90;;;;;;5071225;28;19915;-73
2022/02/16 04:13:52;;;;;;;;;;;4.10;99.90;;;;;;5069728;28;19915;-73
2022/02/16 04:16:17;;;;;;;;;;;4.10;99.90;;;;;;5071086;28;19924;-73
2022/02/16 04:18:43;;;;;;;;;;;3.90;99.90;;;;;;5072188;28;19969;-73
2022/02/16 04:21:08;;;;;;;;;;;4.00;99.90;;;;;;5071165;28;19909;-73
2022/02/16 04:23:34;;;;;;;;;;;4.10;99.90;;;;;;5070761;28;19915;-73
2022/02/16 04:25:59;;;;;;;;;;;4.10;99.90;;;;;;5071079;28;19916;-73
2022/02/16 04:28:26;;;;;;;;;;;4.10;99.90;;;;;;5070887;28;20369;-72
2022/02/16 04:30:51;;;;;;;;;;;4.10;99.90;;;;;;5071412;28;19912;-73
2022/02/16 04:33:17;;;;;;;;;;;4.10;99.90;;;;;;5077179;28;20300;-73
2022/02/16 04:35:42;;;;;;;;;;;4.20;99.90;;;;;;5077582;28;19909;-73
2022/02/16 04:38:08;;;;;;;;;;;4.10;99.90;;;;;;5077663;28;19911;-73
2022/02/16 04:40:34;;;;;;;;;;;4.00;99.90;;;;;;5071012;28;19915;-73
2022/02/16 04:43:03;;;;;;;;;;;4.10;99.90;;;;;;5076046;28;19916;-73
2022/02/16 04:45:29;;;;;;;;;;;4.10;99.90;;;;;;5056368;28;19951;-74
2022/02/16 04:47:55;;;;;;;;;;;4.10;99.90;;;;;;5074630;28;19951;-73
2022/02/16 04:50:20;;;;;;;;;;;4.20;99.90;;;;;;5077382;28;19947;-73
2022/02/16 04:52:49;;;;;;;;;;;4.20;99.90;;;;;;5077414;28;19912;-73
2022/02/16 04:55:15;;;;;;;;;;;4.20;99.90;;;;;;5075716;28;19909;-73
2022/02/16 04:57:40;;;;;;;;;;;4.20;99.90;;;;;;5075193;28;19908;-73
2022/02/16 05:00:06;;;;;;;;;;;4.20;99.90;;;;;;5077511;28;19909;-72
2022/02/16 05:02:32;;;;;;;;;;;4.10;99.90;;;;;;5077115;28;19916;-73
2022/02/16 05:04:57;;;;;;;;;;;4.10;99.90;;;;;;5072073;28;19909;-73
2022/02/16 05:07:23;;;;;;;;;;;4.00;99.90;;;;;;5077050;28;19920;-73
2022/02/16 05:09:49;;;;;;;;;;;4.00;99.90;;;;;;5077404;28;19919;-73
2022/02/16 05:12:15;;;;;;;;;;;4.10;99.90;;;;;;5077203;28;19908;-73
2022/02/16 05:14:41;;;;;;;;;;;4.00;99.90;;;;;;5077126;28;19916;-73
2022/02/16 05:17:06;;;;;;;;;;;4.00;99.90;;;;;;5075984;28;19916;-73
2022/02/16 05:19:32;;;;;;;;;;;4.10;99.90;;;;;;5076072;28;19915;-73
2022/02/16 05:21:57;;;;;;;;;;;4.00;99.90;;;;;;5077123;28;19951;-73
2022/02/16 05:24:23;;;;;;;;;;;4.00;99.90;;;;;;5075732;28;19915;-73
2022/02/16 05:26:49;;;;;;;;;;;4.20;99.90;;;;;;5075722;28;19915;-73
2022/02/16 05:29:14;;;;;;;;;;;4.20;99.90;;;;;;5077199;28;20377;-73
2022/02/16 05:31:40;;;;;;;;;;;4.10;99.90;;;;;;5077030;28;20096;-73
2022/02/16 05:34:05;;;;;;;;;;;4.10;99.90;;;;;;5071635;28;19912;-73
2022/02/16 05:36:31;;;;;;;;;;;4.10;99.90;;;;;;5076756;28;19908;-73
2022/02/16 05:38:56;;;;;;;;;;;4.00;99.90;;;;;;5077048;28;19944;-74
2022/02/16 05:41:22;;;;;;;;;;;4.10;99.90;;;;;;5077090;28;19916;-73
2022/02/16 05:43:47;;;;;;;;;;;4.10;99.90;;;;;;5074128;28;19908;-73
2022/02/16 05:46:13;;;;;;;;;;;4.20;99.90;;;;;;5074164;28;19909;-72
2022/02/16 05:48:38;;;;;;;;;;;4.10;99.90;;;;;;5074427;28;19912;-73
2022/02/16 05:51:04;;;;;;;;;;;4.10;99.90;;;;;;5073459;28;20412;-73
2022/02/16 05:53:30;;;;;;;;;;;4.10;99.90;;;;;;5074020;28;19908;-73
2022/02/16 05:55:55;;;;;;;;;;;4.20;99.90;;;;;;5073921;28;19951;-73
2022/02/16 05:58:21;;;;;;;;;;;4.10;99.90;;;;;;5074413;28;19931;-73
2022/02/16 06:00:46;;;;;;;;;;;4.20;99.90;;;;;;5074211;28;19923;-73
2022/02/16 06:03:12;;;;;;;;;;;4.20;99.90;;;;;;5073659;28;19908;-73
2022/02/16 06:05:37;;;;;;;;;;;4.20;99.90;;;;;;5073850;28;19908;-73
2022/02/16 06:08:03;;;;;;;;;;;4.20;99.90;;;;;;5074308;28;19964;-73
2022/02/16 06:10:30;;;;;;;;;;;4.20;99.90;;;;;;5074616;28;19914;-73
2022/02/16 06:12:57;;;;;;;;;;;4.10;99.90;;;;;;5074043;28;19924;-72
2022/02/16 06:15:23;;;;;;;;;;;4.20;99.90;;;;;;5073666;28;19908;-74
2022/02/16 06:17:49;;;;;;;;;;;4.20;99.90;;;;;;5074405;28;20042;-73
2022/02/16 06:20:14;;;;;;;;;;;4.20;99.90;;;;;;5074292;28;19924;-74
2022/02/16 06:22:40;;;;;;;;;;;4.20;99.90;;;;;;5074505;28;19953;-73
2022/02/16 06:25:06;;;;;;;;;;;4.20;99.90;;;;;;5074068;28;19944;-73
2022/02/16 06:27:32;;;;;;;;;;;4.30;99.90;;;;;;5073787;28;19916;-73
2022/02/16 06:29:58;;;;;;;;;;;4.20;99.90;;;;;;5074147;28;20458;-73
2022/02/16 06:32:23;;;;;;;;;;;4.30;99.90;;;;;;5073617;28;19912;-74
2022/02/16 06:34:49;;;;;;;;;;;4.30;99.90;;;;;;5066692;28;19908;-74
2022/02/16 06:37:14;;;;;;;;;;;4.30;99.90;;;;;;5073734;28;20293;-73
2022/02/16 06:39:40;;;;;;;;;;;4.40;99.90;;;;;;5073661;28;19916;-74
2022/02/16 06:42:06;;;;;;;;;;;4.40;99.90;;;;;;5073670;28;20446;-74
2022/02/16 06:44:31;;;;;;;;;;;4.30;99.90;;;;;;5073483;28;19996;-73
2022/02/16 06:46:57;;;;;;;;;;;4.30;99.90;;;;;;5073559;28;19935;-73
2022/02/16 06:49:22;;;;;;;;;;;4.20;99.90;;;;;;5073699;28;19908;-72
2022/02/16 06:51:48;;;;;;;;;;;4.20;99.90;;;;;;5073365;28;19908;-74
2022/02/16 06:54:13;;;;;;;;;;;4.20;99.90;;;;;;5073364;28;19908;-73
2022/02/16 06:56:39;;;;;;;;;;;4.40;99.90;;;;;;5072491;28;20004;-73
2022/02/16 06:59:04;;;;;;;;;;;4.40;99.90;;;;;;5073892;28;19908;-73
2022/02/16 07:01:30;;;;;;;;;;;4.30;99.90;;;;;;5073320;28;20533;-73
2022/02/16 07:03:55;;;;;;;;;;;4.40;99.90;;;;;;5074831;28;19913;-73
2022/02/16 07:06:21;;;;;;;;;;;4.40;99.90;;;;;;5073213;28;19953;-72
2022/02/16 07:08:47;;;;;;;;;;;4.40;99.90;;;;;;5073310;28;19913;-74
2022/02/16 07:11:12;;;;;;;;;;;4.40;99.90;;;;;;5066415;28;19954;-73
2022/02/16 07:13:38;;;;;;;;;;;4.40;99.90;;;;;;5072875;28;19954;-73
2022/02/16 07:16:04;;;;;;;;;;;4.40;99.90;;;;;;5073521;28;20312;-73
2022/02/16 07:18:32;;;;;;;;;;;4.40;99.90;;;;;;5073471;28;19916;-73
2022/02/16 07:20:57;;;;;;;;;;;4.40;99.90;;;;;;5073404;28;19954;-73
2022/02/16 07:23:23;;;;;;;;;;;4.40;99.90;;;;;;5072742;28;19908;-74
2022/02/16 07:25:48;;;;;;;;;;;4.40;99.90;;;;;;5065515;28;20358;-74
2022/02/16 07:28:14;;;;;;;;;;;4.40;99.90;;;;;;5070256;28;19947;-74
2022/02/16 07:30:39;;;;;;;;;;;4.40;99.90;;;;;;5068953;28;20019;-73
2022/02/16 07:33:05;;;;;;;;;;;4.40;99.90;;;;;;5065887;28;19909;-74
2022/02/16 07:35:30;;;;;;;;;;;4.40;99.90;;;;;;5069088;28;20292;-73
2022/02/16 07:37:57;;;;;;;;;;;4.40;99.90;;;;;;5073713;28;19909;-74
2022/02/16 07:40:23;;;;;;;;;;;4.40;99.90;;;;;;5071773;28;19916;-74
2022/02/16 07:42:48;;;;;;;;;;;4.50;99.90;;;;;;5070028;28;19909;-74
2022/02/16 07:45:14;;;;;;;;;;;4.50;99.90;;;;;;5071779;28;19970;-74
2022/02/16 07:47:39;;;;;;;;;;;4.50;99.90;;;;;;5072197;28;19948;-75
2022/02/16 07:50:05;;;;;;;;;;;4.50;99.90;;;;;;5072921;28;19912;-74
2022/02/16 07:52:34;;;;;;;;;;;4.50;99.90;;;;;;5072521;28;20003;-74
2022/02/16 07:54:59;;;;;;;;;;;4.60;99.90;;;;;;5071787;28;19991;-75
2022/02/16 07:57:25;;;;;;;;;;;4.70;99.90;;;;;;5067797;28;20035;-74
2022/02/16 07:59:51;;;;;;;;;;;4.60;99.90;;;;;;5072216;28;20349;-74
2022/02/16 08:02:16;;;;;;;;;;;4.70;99.90;;;;;;5070901;28;19917;-74
2022/02/16 08:04:42;;;;;;;;;;;4.70;99.90;;;;;;5070898;28;19955;-73
2022/02/16 08:07:07;;;;;;;;;;;4.70;99.90;;;;;;5070998;28;20164;-74
2022/02/16 08:09:33;;;;;;;;;;;4.70;99.90;;;;;;5075041;28;19912;-74
2022/02/16 08:11:58;;;;;;;;;;;4.70;99.90;;;;;;5083915;28;19909;-74
2022/02/16 08:14:24;;;;;;;;;;;4.80;99.90;;;;;;5071648;28;19912;-74
2022/02/16 08:16:49;;;;;;;;;;;4.80;99.90;;;;;;5070270;28;19916;-75
2022/02/16 08:19:15;;;;;;;;;;;4.80;99.90;;;;;;5071230;28;19920;-74
2022/02/16 08:21:43;;;;;;;;;;;4.80;99.90;;;;;;5076596;28;19916;-73
2022/02/16 08:24:08;;;;;;;;;;;4.70;99.90;;;;;;5070995;28;20365;-74
2022/02/16 08:26:34;;;;;;;;;;;4.70;99.90;;;;;;5071025;28;19916;-74
2022/02/16 08:28:59;;;;;;;;;;;4.70;99.90;;;;;;5066818;28;19917;-74
2022/02/16 08:31:25;;;;;;;;;;;4.80;99.90;;;;;;5072324;28;20422;-73
2022/02/16 08:33:50;;;;;;;;;;;4.80;99.90;;;;;;5070179;28;19915;-74
2022/02/16 08:36:16;;;;;;;;;;;4.80;99.90;;;;;;5071554;28;20271;-74
2022/02/16 08:38:42;;;;;;;;;;;4.70;99.90;;;;;;5069878;28;19915;-74
2022/02/16 08:41:08;;;;;;;;;;;4.60;99.90;;;;;;5071616;28;19961;-74
2022/02/16 08:43:33;;;;;;;;;;;4.60;99.90;;;;;;5071036;28;19915;-74
2022/02/16 08:45:59;;;;;;;;;;;4.60;99.90;;;;;;5072276;28;19908;-74
2022/02/16 08:48:25;;;;;;;;;;;4.70;99.90;;;;;;5071363;28;19974;-75
2022/02/16 08:50:55;;;;;;;;;;;4.70;99.90;;;;;;5071359;28;20338;-74
2022/02/16 08:53:22;;;;;;;;;;;4.60;99.90;;;;;;5070999;28;20369;-74
2022/02/16 08:55:51;;;;;;;;;;;4.60;99.90;;;;;;5069202;28;20266;-74
2022/02/16 08:58:17;;;;;;;;;;;4.60;99.90;;;;;;5065054;28;20353;-74
2022/02/16 09:00:42;;;;;;;;;;;4.70;99.90;;;;;;5075741;28;19908;-74
2022/02/16 09:03:08;;;;;;;;;;;4.70;99.90;;;;;;5077039;28;19908;-74
2022/02/16 09:05:33;;;;;;;;;;;4.70;99.90;;;;;;5071854;28;19947;-74
2022/02/16 09:07:59;;;;;;;;;;;4.60;99.90;;;;;;5073576;28;20297;-74
2022/02/16 09:10:24;;;;;;;;;;;4.60;99.90;;;;;;5073066;28;19913;-74
2022/02/16 09:12:50;;;;;;;;;;;4.60;99.90;;;;;;5074414;28;19954;-73
2022/02/16 09:15:17;;;;;;;;;;;4.60;99.90;;;;;;5072893;28;19916;-74
2022/02/16 09:17:44;;;;;;;;;;;4.80;99.90;;;;;;5072435;28;20339;-74
2022/02/16 09:20:10;;;;;;;;;;;5.00;99.90;;;;;;5075815;28;19909;-74
2022/02/16 09:22:37;;;;;;;;;;;5.10;99.90;;;;;;5075480;28;19916;-74
2022/02/16 09:25:02;;;;;;;;;;;5.10;99.90;;;;;;5076252;28;19913;-74
2022/02/16 09:27:28;;;;;;;;;;;5.20;99.90;;;;;;5076159;28;19919;-74
2022/02/16 09:29:54;;;;;;;;;;;5.20;99.90;;;;;;5075579;28;19908;-74
2022/02/16 09:32:21;;;;;;;;;;;5.20;99.90;;;;;;5074674;28;19912;-75
2022/02/16 09:34:47;;;;;;;;;;;5.20;99.90;;;;;;5070250;28;19932;-73
2022/02/16 09:37:13;;;;;;;;;;;5.20;99.90;;;;;;5076000;28;19913;-74
2022/02/16 09:39:38;;;;;;;;;;;5.30;99.90;;;;;;5076625;28;20368;-75
2022/02/16 09:42:04;;;;;;;;;;;5.40;99.90;;;;;;5078007;28;20361;-74
2022/02/16 09:44:33;;;;;;;;;;;5.50;99.90;;;;;;5076578;28;19955;-74
2022/02/16 09:46:59;;;;;;;;;;;5.60;99.90;;;;;;5077826;28;19919;-73
2022/02/16 09:49:25;;;;;;;;;;;5.70;99.90;;;;;;5078909;28;20358;-74
2022/02/16 09:51:50;;;;;;;;;;;5.80;99.90;;;;;;5075663;28;20011;-75
2022/02/16 09:54:16;;;;;;;;;;;5.80;99.90;;;;;;5075319;28;20279;-74
2022/02/16 09:56:43;;;;;;;;;;;5.80;99.90;;;;;;5072516;28;20309;-75
2022/02/16 09:59:10;;;;;;;;;;;5.90;99.90;;;;;;5079748;28;19916;-75
2022/02/16 10:01:52;;;;;;;;;;;5.90;99.90;;;;;;5070999;28;19924;-75
2022/02/16 10:04:17;;;;;;;;;;;6.00;99.90;;;;;;5070087;28;19971;-74
2022/02/16 10:06:44;;;;;;;;;;;6.20;99.90;;;;;;5075784;28;19924;-74
2022/02/16 10:09:23;;;;;;;;;;;6.30;99.90;;;;;;5075463;28;19912;-75
2022/02/16 10:11:49;;;;;;;;;;;6.20;99.90;;;;;;5075737;28;19909;-74
2022/02/16 10:14:19;;;;;;;;;;;6.10;99.90;;;;;;5075834;28;19908;-75
2022/02/16 10:16:45;;;;;;;;;;;6.30;99.90;;;;;;5076047;28;19952;-75
2022/02/16 10:19:12;;;;;;;;;;;6.40;99.90;;;;;;5074654;28;20400;-75
2022/02/16 10:21:38;;;;;;;;;;;6.60;99.90;;;;;;5076157;28;19908;-74
2022/02/16 10:24:04;;;;;;;;;;;6.60;99.90;;;;;;5076090;28;19908;-75
2022/02/16 10:26:50;;;;;;;;;;;6.60;99.90;;;;;;5075847;28;20294;-74
2022/02/16 10:29:34;;;;;;;;;;;6.60;99.90;;;;;;5075475;28;19961;-75
2022/02/16 10:32:01;;;;;;;;;;;6.70;99.90;;;;;;5065218;28;19909;-74
2022/02/16 10:34:47;;;;;;;;;;;6.60;99.90;;;;;;5076166;28;20011;-75
2022/02/16 10:37:13;;;;;;;;;;;6.70;99.90;;;;;;5075336;28;19992;-75
2022/02/16 10:39:39;;;;;;;;;;;6.80;99.90;;;;;;5075100;28;19909;-73
2022/02/16 10:42:08;;;;;;;;;;;6.80;99.90;;;;;;5078837;28;19909;-74
2022/02/16 10:44:35;;;;;;;;;;;7.00;99.90;;;;;;5074981;28;20361;-75
2022/02/16 10:47:08;;;;;;;;;;;7.20;99.90;;;;;;5073878;28;19908;-74
2022/02/16 10:49:34;;;;;;;;;;;7.30;99.90;;;;;;5074296;28;19954;-75
2022/02/16 10:52:06;;;;;;;;;;;7.90;99.90;;;;;;5073100;28;20269;-75
2022/02/16 10:54:32;;;;;;;;;;;8.20;99.90;;;;;;5073088;28;19916;-75
2022/02/16 10:56:58;;;;;;;;;;;8.10;99.90;;;;;;5071142;28;20265;-75
2022/02/16 10:59:23;;;;;;;;;;;8.10;99.90;;;;;;5076593;28;19908;-75
2022/02/16 11:01:49;;;;;;;;;;;8.40;99.90;;;;;;5070984;28;20357;-75
2022/02/16 11:04:15;;;;;;;;;;;8.50;99.90;;;;;;5066353;28;19908;-74
2022/02/16 11:06:48;;;;;;;;;;;9.10;99.90;;;;;;5072514;28;19920;-75
2022/02/16 11:09:18;;;;;;;;;;;9.20;99.90;;;;;;5072447;28;19913;-75
2022/02/16 11:11:44;;;;;;;;;;;10.00;99.90;;;;;;5072299;28;20296;-75
2022/02/16 11:14:10;;;;;;;;;;;10.30;99.90;;;;;;5072458;28;19908;-75
2022/02/16 11:16:36;;;;;;;;;;;10.60;99.90;;;;;;5072559;28;19923;-75
2022/02/16 11:19:17;;;;;;;;;;;9.70;99.90;;;;;;5072646;28;19908;-75
2022/02/16 11:21:56;;;;;;;;;;;9.30;99.90;;;;;;5072312;28;19977;-75
2022/02/16 11:24:51;;;;;;;;;;;9.20;99.90;;;;;;5067435;28;19909;-75
2022/02/16 11:27:23;;;;;;;;;;;9.50;99.90;;;;;;5060771;28;19908;-75
2022/02/16 11:29:49;;;;;;;;;;;11.50;99.90;;;;;;5077848;28;19912;-74
2022/02/16 11:32:15;;;;;;;;;;;13.50;99.80;;;;;;5071178;28;19947;-75
2022/02/16 11:34:41;;;;;;;;;;;12.90;98.60;;;;;;5070133;28;19913;-75
2022/02/16 11:37:07;;;;;;;;;;;12.30;99.90;;;;;;5072826;28;20360;-75
2022/02/16 11:39:41;;;;;;;;;;;11.20;99.90;;;;;;5072474;28;19916;-76
2022/02/16 11:42:07;;;;;;;;;;;11.80;99.90;;;;;;5070042;28;19977;-75
2022/02/16 11:44:50;;;;;;;;;;;11.50;99.90;;;;;;5072270;28;20413;-75
2022/02/16 11:47:34;;;;;;;;;;;11.60;99.90;;;;;;5066431;28;20292;-76
2022/02/16 11:50:19;;;;;;;;;;;11.90;99.90;;;;;;5072263;28;19951;-76
2022/02/16 11:52:58;;;;;;;;;;;11.10;99.90;;;;;;5071639;28;19962;-75
2022/02/16 11:55:23;;;;;;;;;;;10.50;99.90;;;;;;5071864;28;20161;-76
2022/02/16 11:57:50;;;;;;;;;;;10.30;99.90;;;;;;5068580;28;19908;-76
2022/02/16 12:00:17;;;;;;;;;;;10.10;99.90;;;;;;5065493;28;19913;-75
2022/02/16 12:02:55;;;;;;;;;;;10.00;99.90;;;;;;5065983;28;19924;-75
2022/02/16 12:05:40;;;;;;;;;;;10.10;99.90;;;;;;5066072;28;19908;-76
2022/02/16 12:08:16;;;;;;;;;;;9.90;99.90;;;;;;5068711;28;19912;-76
2022/02/16 12:10:48;;;;;;;;;;;9.90;99.90;;;;;;5072249;28;19909;-76
2022/02/16 12:13:14;;;;;;;;;;;9.70;99.90;;;;;;5070277;28;19909;-76
2022/02/16 12:15:40;;;;;;;;;;;9.70;99.90;;;;;;5072129;28;19919;-76
2022/02/16 12:18:10;;;;;;;;;;;9.50;99.90;;;;;;5072536;28;19995;-76
2022/02/16 12:20:36;;;;;;;;;;;9.40;99.90;;;;;;5072268;28;19912;-75
2022/02/16 12:23:04;;;;;;;;;;;9.20;99.90;;;;;;5071655;28;19953;-76
2022/02/16 12:25:31;;;;;;;;;;;9.00;99.90;;;;;;5071931;28;19916;-76
2022/02/16 12:28:04;;;;;;;;;;;9.20;99.90;;;;;;5070183;28;20191;-76
2022/02/16 12:30:34;;;;;;;;;;;9.10;99.90;;;;;;5071958;28;19909;-76
2022/02/16 12:33:00;;;;;;;;;;;9.00;99.90;;;;;;5071824;28;20058;-76
2022/02/16 12:35:25;;;;;;;;;;;8.90;99.90;;;;;;5071982;28;19962;-76
2022/02/16 12:37:53;;;;;;;;;;;8.90;99.90;;;;;;5073812;28;19915;-74
2022/02/16 12:40:22;;;;;;;;;;;8.90;99.90;;;;;;5072076;28;19952;-76
2022/02/16 12:42:48;;;;;;;;;;;9.00;99.90;;;;;;5071787;28;20266;-76
2022/02/16 12:45:21;;;;;;;;;;;9.10;99.90;;;;;;5061634;28;19913;-76
2022/02/16 12:47:48;;;;;;;;;;;9.00;99.90;;;;;;5072138;28;19923;-76
2022/02/16 12:50:14;;;;;;;;;;;9.10;99.90;;;;;;5072760;28;19999;-76
2022/02/16 12:52:39;;;;;;;;;;;9.30;99.90;;;;;;5066396;28;19966;-76
2022/02/16 12:55:06;;;;;;;;;;;9.30;99.90;;;;;;5072590;28;19912;-74
2022/02/16 12:57:31;;;;;;;;;;;9.30;99.90;;;;;;5066546;28;19944;-75
2022/02/16 13:03:04;;;;;;;;;;;9.40;99.90;;;;;;5074774;28;19979;-76
2022/02/16 13:05:37;;;;;;;;;;;9.50;99.90;;;;;;5074757;28;19916;-75
2022/02/16 13:08:03;;;;;;;;;;;9.40;99.90;;;;;;5075191;28;19920;-75
2022/02/16 13:10:29;;;;;;;;;;;9.40;99.90;;;;;;5075407;28;19916;-76
2022/02/16 13:12:54;;;;;;;;;;;9.40;99.90;;;;;;5074237;28;19909;-76
2022/02/16 13:15:21;;;;;;;;;;;9.50;99.90;;;;;;5074479;28;20397;-75
2022/02/16 13:17:52;;;;;;;;;;;9.60;99.90;;;;;;5075893;28;20284;-76
2022/02/16 13:20:26;;;;;;;;;;;9.60;99.90;;;;;;5075376;28;19916;-76
2022/02/16 13:22:57;;;;;;;;;;;9.60;99.90;;;;;;5075667;28;20341;-76
2022/02/16 13:25:35;;;;;;;;;;;9.60;99.90;;;;;;5075248;28;20037;-75
2022/02/16 13:28:02;;;;;;;;;;;9.80;99.90;;;;;;5070370;28;19958;-76
2022/02/16 13:30:29;;;;;;;;;;;10.00;99.90;;;;;;5076067;28;19919;-76
2022/02/16 13:32:55;;;;;;;;;;;10.10;99.90;;;;;;5075249;28;19909;-76
2022/02/16 13:35:24;;;;;;;;;;;10.10;99.90;;;;;;5075157;28;19908;-74
2022/02/16 13:38:07;;;;;;;;;;;9.90;99.90;;;;;;5074537;28;19909;-74
2022/02/16 13:40:46;;;;;;;;;;;9.80;99.90;;;;;;5073760;28;19908;-75
2022/02/16 13:43:12;;;;;;;;;;;9.80;99.90;;;;;;5074815;28;19909;-76
2022/02/16 13:45:38;;;;;;;;;;;9.60;99.90;;;;;;5075032;28;20277;-76
2022/02/16 13:48:04;;;;;;;;;;;9.80;99.90;;;;;;5075154;28;19917;-76
2022/02/16 13:50:48;;;;;;;;;;;9.80;99.90;;;;;;5075045;28;19915;-76
2022/02/16 13:53:13;;;;;;;;;;;10.00;99.90;;;;;;5074101;28;19955;-76
2022/02/16 13:55:43;;;;;;;;;;;10.10;99.90;;;;;;5071213;28;19912;-76
2022/02/16 13:58:09;;;;;;;;;;;10.20;99.90;;;;;;5069265;28;19908;-75
2022/02/16 14:00:35;;;;;;;;;;;10.20;99.90;;;;;;5074708;28;20293;-75
2022/02/16 14:03:08;;;;;;;;;;;10.20;99.90;;;;;;5075176;28;19962;-77
2022/02/16 14:05:34;;;;;;;;;;;10.10;99.90;;;;;;5054593;28;19913;-76
2022/02/16 14:08:03;;;;;;;;;;;10.00;99.90;;;;;;5063143;28;19999;-77
2022/02/16 14:10:29;;;;;;;;;;;10.10;99.90;;;;;;5072975;28;19908;-76
2022/02/16 14:12:55;;;;;;;;;;;10.00;99.90;;;;;;5064701;28;19916;-77
2022/02/16 14:15:21;;;;;;;;;;;9.90;99.90;;;;;;5072548;28;19908;-76
2022/02/16 14:17:47;;;;;;;;;;;9.70;99.90;;;;;;5072860;28;19916;-77
2022/02/16 14:20:13;;;;;;;;;;;9.50;99.90;;;;;;5072911;28;20312;-77
2022/02/16 14:22:38;;;;;;;;;;;9.50;99.90;;;;;;5073943;28;19913;-76
2022/02/16 14:25:04;;;;;;;;;;;9.40;99.90;;;;;;5073853;28;19908;-77
2022/02/16 14:27:31;;;;;;;;;;;9.40;99.90;;;;;;5073953;28;19927;-76
2022/02/16 14:29:56;;;;;;;;;;;9.40;99.90;;;;;;5074030;28;20339;-77